Time;durP1;ratioP1;P1;durP2;ratioP2;P2;SDS_P1;SDS_P2;PMS_P1;PMS_P2;Temp;Humidity;BMP_temperature;BMP_pressure;BME280_temperature;BME280_humidity;BME280_pressure;Samples;Min_cycle;Max_cycle;Signal;HPM_P1;HPM_P2
2022/03/09 00:01:39;;;;;;;;;;;-5.20;92.10;;;;;;5034062;28;19920;-72
2022/03/09 00:04:04;;;;;;;;;;;-5.20;92.60;;;;;;5033814;28;20278;-72
2022/03/09 00:06:30;;;;;;;;;;;-5.10;92.50;;;;;;5035379;28;19945;-72
2022/03/09 00:08:56;;;;;;;;;;;-5.00;93.20;;;;;;5035257;28;19920;-73
2022/03/09 00:11:22;;;;;;;;;;;-5.00;93.00;;;;;;5035120;28;19909;-72
2022/03/09 00:13:47;;;;;;;;;;;-5.10;92.70;;;;;;5035404;28;19909;-72
2022/03/09 00:16:13;;;;;;;;;;;-5.30;92.80;;;;;;5036378;28;19923;-72
2022/03/09 00:18:38;;;;;;;;;;;-5.20;93.80;;;;;;5054677;28;19908;-72
2022/03/09 00:21:04;;;;;;;;;;;-5.30;93.60;;;;;;5036647;28;19960;-72
2022/03/09 00:23:29;;;;;;;;;;;-5.20;93.40;;;;;;5034740;28;19909;-72
2022/03/09 00:25:55;;;;;;;;;;;-5.10;93.30;;;;;;5035052;28;19909;-72
2022/03/09 00:28:20;;;;;;;;;;;-5.00;93.10;;;;;;5034806;28;19968;-71
2022/03/09 00:30:46;;;;;;;;;;;-5.00;93.10;;;;;;5034902;28;20294;-72
2022/03/09 00:33:11;;;;;;;;;;;-5.20;93.20;;;;;;5034383;28;19909;-72
2022/03/09 00:35:38;;;;;;;;;;;-5.30;93.90;;;;;;5034851;28;20243;-72
2022/03/09 00:38:04;;;;;;;;;;;-5.30;93.70;;;;;;5034733;28;19917;-72
2022/03/09 00:40:30;;;;;;;;;;;-5.10;93.60;;;;;;5034589;28;19917;-72
2022/03/09 00:42:55;;;;;;;;;;;-5.00;93.50;;;;;;5034487;28;20377;-72
2022/03/09 00:45:21;;;;;;;;;;;-5.00;93.00;;;;;;5034146;28;19916;-72
2022/03/09 00:47:46;;;;;;;;;;;-5.00;93.40;;;;;;5034682;28;19909;-72
2022/03/09 00:50:12;;;;;;;;;;;-5.10;94.00;;;;;;5044171;28;19962;-72
2022/03/09 00:52:37;;;;;;;;;;;-5.10;93.90;;;;;;5034609;28;19909;-72
2022/03/09 00:55:04;;;;;;;;;;;-5.20;93.40;;;;;;5034342;28;19963;-72
2022/03/09 00:57:29;;;;;;;;;;;-5.20;93.60;;;;;;5034342;28;19916;-72
2022/03/09 00:59:54;;;;;;;;;;;-5.00;93.30;;;;;;5034304;28;19910;-72
2022/03/09 01:02:20;;;;;;;;;;;-4.90;93.10;;;;;;5033997;28;20443;-72
2022/03/09 01:04:45;;;;;;;;;;;-4.90;93.30;;;;;;5042485;28;19999;-72
2022/03/09 01:07:11;;;;;;;;;;;-5.00;93.20;;;;;;5032978;28;19916;-72
2022/03/09 01:09:36;;;;;;;;;;;-5.20;93.50;;;;;;5034111;28;20385;-73
2022/03/09 01:12:02;;;;;;;;;;;-5.30;94.60;;;;;;5033985;28;19962;-73
2022/03/09 01:14:28;;;;;;;;;;;-5.40;94.10;;;;;;5033864;28;20298;-73
2022/03/09 01:16:53;;;;;;;;;;;-5.50;94.50;;;;;;5033700;28;19924;-73
2022/03/09 01:19:19;;;;;;;;;;;-5.50;95.10;;;;;;5043035;28;19912;-73
2022/03/09 01:21:44;;;;;;;;;;;-5.40;95.20;;;;;;5042828;28;20365;-73
2022/03/09 01:24:10;;;;;;;;;;;-5.60;94.50;;;;;;5033999;28;19909;-73
2022/03/09 01:26:35;;;;;;;;;;;-5.70;95.60;;;;;;5033780;28;19910;-73
2022/03/09 01:29:01;;;;;;;;;;;-5.70;96.00;;;;;;5033847;28;20293;-73
2022/03/09 01:31:26;;;;;;;;;;;-5.70;96.00;;;;;;5032315;28;19909;-73
2022/03/09 01:33:52;;;;;;;;;;;-5.60;96.20;;;;;;5033717;28;20003;-73
2022/03/09 01:36:18;;;;;;;;;;;-5.60;96.80;;;;;;5033694;28;19909;-72
2022/03/09 01:38:43;;;;;;;;;;;-5.80;96.40;;;;;;5033563;28;19909;-73
2022/03/09 01:41:09;;;;;;;;;;;-5.80;97.10;;;;;;5033494;28;20354;-73
2022/03/09 01:43:34;;;;;;;;;;;-5.90;97.90;;;;;;5033278;28;19945;-73
2022/03/09 01:46:00;;;;;;;;;;;-5.90;97.60;;;;;;5033388;28;19913;-72
2022/03/09 01:48:25;;;;;;;;;;;-5.80;97.40;;;;;;5056728;28;19908;-73
2022/03/09 01:50:51;;;;;;;;;;;-5.80;98.20;;;;;;5046159;28;20289;-72
2022/03/09 01:53:18;;;;;;;;;;;-5.80;98.40;;;;;;5037568;28;19916;-72
2022/03/09 01:55:43;;;;;;;;;;;-5.60;98.00;;;;;;5034105;28;19913;-72
2022/03/09 01:58:09;;;;;;;;;;;-5.50;97.50;;;;;;5035430;28;19909;-72
2022/03/09 02:00:34;;;;;;;;;;;-5.60;97.60;;;;;;5033401;28;20286;-72
2022/03/09 02:03:00;;;;;;;;;;;-5.50;97.70;;;;;;5033139;28;19910;-72
2022/03/09 02:05:25;;;;;;;;;;;-5.50;97.90;;;;;;5032961;28;19919;-72
2022/03/09 02:10:36;;;;;;;;;;;-5.50;98.80;;;;;;5046164;28;19955;-72
2022/03/09 02:13:01;;;;;;;;;;;-5.60;99.00;;;;;;5044974;28;19944;-73
2022/03/09 02:15:27;;;;;;;;;;;-5.60;98.40;;;;;;5047448;28;19913;-73
2022/03/09 02:17:52;;;;;;;;;;;-5.60;98.20;;;;;;5036081;28;19967;-72
2022/03/09 02:20:18;;;;;;;;;;;-5.70;98.80;;;;;;5032811;28;19909;-72
2022/03/09 02:22:44;;;;;;;;;;;-5.90;99.90;;;;;;5031379;28;19909;-73
2022/03/09 02:25:10;;;;;;;;;;;-5.80;99.90;;;;;;5031266;28;19909;-73
2022/03/09 02:27:36;;;;;;;;;;;-5.80;99.60;;;;;;5032588;28;19909;-73
2022/03/09 02:30:03;;;;;;;;;;;-5.80;99.90;;;;;;5032665;28;19967;-73
2022/03/09 02:32:28;;;;;;;;;;;-5.80;99.80;;;;;;5031343;28;20428;-73
2022/03/09 02:34:54;;;;;;;;;;;-5.90;99.90;;;;;;5032389;28;19909;-72
2022/03/09 02:37:19;;;;;;;;;;;-6.10;99.90;;;;;;5032566;28;20286;-72
2022/03/09 02:39:45;;;;;;;;;;;-5.90;99.90;;;;;;5032791;28;19996;-73
2022/03/09 02:42:11;;;;;;;;;;;-6.00;99.40;;;;;;5030987;28;19917;-73
2022/03/09 02:44:36;;;;;;;;;;;-6.10;99.90;;;;;;5032655;28;19920;-73
2022/03/09 02:47:02;;;;;;;;;;;-5.90;99.90;;;;;;5043159;28;19924;-73
2022/03/09 02:49:28;;;;;;;;;;;-5.70;99.60;;;;;;5036205;28;19916;-72
2022/03/09 02:51:53;;;;;;;;;;;-5.50;99.30;;;;;;5037696;28;20012;-73
2022/03/09 02:54:19;;;;;;;;;;;-5.50;99.00;;;;;;5041437;28;20007;-73
2022/03/09 02:56:44;;;;;;;;;;;-5.80;99.50;;;;;;5049155;28;20128;-73
2022/03/09 02:59:10;;;;;;;;;;;-5.70;99.90;;;;;;5038437;28;19982;-73
2022/03/09 03:01:36;;;;;;;;;;;-6.00;99.90;;;;;;5031999;28;20293;-73
2022/03/09 03:04:01;;;;;;;;;;;-6.00;99.90;;;;;;5032233;28;19932;-73
2022/03/09 03:06:27;;;;;;;;;;;-6.20;99.90;;;;;;5032147;28;19916;-72
2022/03/09 03:08:52;;;;;;;;;;;-6.30;99.90;;;;;;5032040;28;19948;-72
2022/03/09 03:11:18;;;;;;;;;;;-6.20;99.90;;;;;;5032064;28;19909;-73
2022/03/09 03:13:44;;;;;;;;;;;-6.00;99.90;;;;;;5030489;28;20289;-72
2022/03/09 03:16:10;;;;;;;;;;;-6.00;99.90;;;;;;5032021;28;19916;-72
2022/03/09 03:18:36;;;;;;;;;;;-6.00;99.90;;;;;;5042066;28;20385;-72
2022/03/09 03:21:02;;;;;;;;;;;-6.00;99.90;;;;;;5037401;28;20289;-72
2022/03/09 03:23:28;;;;;;;;;;;-6.10;99.90;;;;;;5031453;28;19909;-73
2022/03/09 03:25:54;;;;;;;;;;;-6.30;99.90;;;;;;5037037;28;19917;-72
2022/03/09 03:28:20;;;;;;;;;;;-6.20;99.90;;;;;;5031824;28;19920;-72
2022/03/09 03:30:46;;;;;;;;;;;-6.10;99.90;;;;;;5031926;28;19910;-73
2022/03/09 03:33:12;;;;;;;;;;;-6.00;99.90;;;;;;5031634;28;19916;-73
2022/03/09 03:35:38;;;;;;;;;;;-6.20;99.90;;;;;;5031968;28;19916;-72
2022/03/09 03:38:03;;;;;;;;;;;-6.10;99.90;;;;;;5031863;28;19909;-72
2022/03/09 03:40:29;;;;;;;;;;;-6.10;99.90;;;;;;5031697;28;19909;-72
2022/03/09 03:42:55;;;;;;;;;;;-6.30;99.90;;;;;;5031697;28;20012;-73
2022/03/09 03:45:20;;;;;;;;;;;-6.40;99.90;;;;;;5031711;28;20373;-73
2022/03/09 03:47:46;;;;;;;;;;;-6.60;99.90;;;;;;5033132;28;19917;-73
2022/03/09 03:50:11;;;;;;;;;;;-6.60;99.90;;;;;;5051392;28;20350;-73
2022/03/09 03:52:37;;;;;;;;;;;-6.40;99.90;;;;;;5033688;28;20000;-73
2022/03/09 03:55:03;;;;;;;;;;;-6.40;99.90;;;;;;5031558;28;19975;-73
2022/03/09 03:57:29;;;;;;;;;;;-6.50;99.90;;;;;;5031641;28;19921;-72
2022/03/09 03:59:54;;;;;;;;;;;-6.60;99.90;;;;;;5031584;28;19909;-72
2022/03/09 04:02:19;;;;;;;;;;;-6.50;99.90;;;;;;5031425;28;19936;-72
2022/03/09 04:04:45;;;;;;;;;;;-6.60;99.90;;;;;;5031408;28;19963;-72
2022/03/09 04:07:10;;;;;;;;;;;-6.60;99.90;;;;;;5031627;28;19917;-72
2022/03/09 04:09:36;;;;;;;;;;;-6.60;99.90;;;;;;5037394;28;19945;-72
2022/03/09 04:12:02;;;;;;;;;;;-6.70;99.90;;;;;;5031296;28;20004;-72
2022/03/09 04:14:27;;;;;;;;;;;-6.70;99.90;;;;;;5031287;28;19909;-72
2022/03/09 04:16:52;;;;;;;;;;;-6.80;99.90;;;;;;5031380;28;19917;-73
2022/03/09 04:19:18;;;;;;;;;;;-6.80;99.90;;;;;;5042849;28;19936;-73
2022/03/09 04:21:43;;;;;;;;;;;-6.80;99.90;;;;;;5051599;28;19920;-73
2022/03/09 04:24:09;;;;;;;;;;;-6.60;99.90;;;;;;5034808;28;20377;-73
2022/03/09 04:26:34;;;;;;;;;;;-6.60;99.90;;;;;;5034850;28;19913;-73
2022/03/09 04:29:00;;;;;;;;;;;-6.70;99.90;;;;;;5034886;28;19917;-73
2022/03/09 04:31:26;;;;;;;;;;;-6.70;99.90;;;;;;5034785;28;19917;-73
2022/03/09 04:33:51;;;;;;;;;;;-6.80;99.90;;;;;;5034483;28;19916;-73
2022/03/09 04:36:17;;;;;;;;;;;-6.90;99.90;;;;;;5054014;28;19913;-72
2022/03/09 04:38:42;;;;;;;;;;;-6.80;99.90;;;;;;5053793;28;19909;-73
2022/03/09 04:41:08;;;;;;;;;;;-6.60;99.90;;;;;;5053544;28;19919;-72
2022/03/09 04:43:33;;;;;;;;;;;-6.70;99.90;;;;;;5053412;28;19909;-72
2022/03/09 04:45:59;;;;;;;;;;;-6.70;99.90;;;;;;5053793;28;20003;-72
2022/03/09 04:48:24;;;;;;;;;;;-6.70;99.90;;;;;;5055165;28;19909;-73
2022/03/09 04:50:50;;;;;;;;;;;-6.60;99.90;;;;;;5039127;28;19909;-73
2022/03/09 04:53:15;;;;;;;;;;;-6.80;99.90;;;;;;5034221;28;20031;-73
2022/03/09 04:55:41;;;;;;;;;;;-6.80;99.90;;;;;;5035857;28;19948;-73
2022/03/09 04:58:06;;;;;;;;;;;-6.80;99.90;;;;;;5053441;28;19952;-73
2022/03/09 05:00:32;;;;;;;;;;;-6.70;99.90;;;;;;5053402;28;19913;-73
2022/03/09 05:02:57;;;;;;;;;;;-6.60;99.90;;;;;;5053264;28;20349;-73
2022/03/09 05:05:23;;;;;;;;;;;-6.40;99.90;;;;;;5053111;28;19916;-73
2022/03/09 05:07:48;;;;;;;;;;;-6.20;99.90;;;;;;5053302;28;19916;-73
2022/03/09 05:10:14;;;;;;;;;;;-6.00;99.90;;;;;;5053243;28;19913;-73
2022/03/09 05:12:39;;;;;;;;;;;-6.20;99.90;;;;;;5053098;28;19955;-73
2022/03/09 05:15:05;;;;;;;;;;;-6.50;99.90;;;;;;5049034;28;19916;-73
2022/03/09 05:17:30;;;;;;;;;;;-6.80;99.90;;;;;;5041791;28;19928;-73
2022/03/09 05:19:56;;;;;;;;;;;-6.90;99.90;;;;;;5034244;28;19909;-73
2022/03/09 05:22:21;;;;;;;;;;;-6.90;99.90;;;;;;5033835;28;19959;-73
2022/03/09 05:24:47;;;;;;;;;;;-7.00;99.90;;;;;;5033523;28;19916;-73
2022/03/09 05:27:12;;;;;;;;;;;-7.10;99.90;;;;;;5033791;28;19952;-73
2022/03/09 05:29:38;;;;;;;;;;;-7.20;99.90;;;;;;5033422;28;19909;-73
2022/03/09 05:32:04;;;;;;;;;;;-7.10;99.90;;;;;;5032840;28;19908;-73
2022/03/09 05:34:30;;;;;;;;;;;-7.00;99.90;;;;;;5033466;28;20325;-73
2022/03/09 05:36:55;;;;;;;;;;;-6.90;99.90;;;;;;5033585;28;19963;-73
2022/03/09 05:39:21;;;;;;;;;;;-6.90;99.90;;;;;;5033427;28;19935;-73
2022/03/09 05:41:47;;;;;;;;;;;-6.80;99.90;;;;;;5033665;28;19913;-73
2022/03/09 05:44:13;;;;;;;;;;;-6.70;99.90;;;;;;5034823;28;19916;-73
2022/03/09 05:46:38;;;;;;;;;;;-6.90;99.90;;;;;;5044589;28;19913;-73
2022/03/09 05:49:05;;;;;;;;;;;-7.00;99.90;;;;;;5049843;28;20000;-73
2022/03/09 05:51:31;;;;;;;;;;;-7.10;99.90;;;;;;5032709;28;20356;-72
2022/03/09 05:53:57;;;;;;;;;;;-7.10;99.90;;;;;;5032990;28;20016;-72
2022/03/09 05:56:23;;;;;;;;;;;-7.20;99.90;;;;;;5033305;28;19917;-72
2022/03/09 05:58:48;;;;;;;;;;;-7.30;99.90;;;;;;5033120;28;19910;-73
2022/03/09 06:01:14;;;;;;;;;;;-7.30;99.90;;;;;;5031809;28;19913;-72
2022/03/09 06:03:39;;;;;;;;;;;-7.20;99.90;;;;;;5032904;28;19909;-72
2022/03/09 06:06:05;;;;;;;;;;;-7.10;99.90;;;;;;5033057;28;19955;-72
2022/03/09 06:08:31;;;;;;;;;;;-7.10;99.90;;;;;;5032828;28;19971;-72
2022/03/09 06:10:56;;;;;;;;;;;-7.20;99.90;;;;;;5034058;28;19972;-72
2022/03/09 06:13:22;;;;;;;;;;;-7.20;99.90;;;;;;5032663;28;20014;-73
2022/03/09 06:15:49;;;;;;;;;;;-7.10;99.90;;;;;;5032974;28;19988;-72
2022/03/09 06:18:15;;;;;;;;;;;-7.00;99.90;;;;;;5042307;28;19909;-72
2022/03/09 06:20:40;;;;;;;;;;;-7.00;99.90;;;;;;5039465;28;20427;-72
2022/03/09 06:23:06;;;;;;;;;;;-7.00;99.90;;;;;;5032289;28;19909;-72
2022/03/09 06:25:32;;;;;;;;;;;-6.90;99.90;;;;;;5032810;28;19995;-73
2022/03/09 06:27:58;;;;;;;;;;;-7.00;99.90;;;;;;5032657;28;19909;-73
2022/03/09 06:30:24;;;;;;;;;;;-6.80;99.90;;;;;;5032734;28;20000;-73
2022/03/09 06:32:49;;;;;;;;;;;-6.70;99.90;;;;;;5032681;28;20454;-73
2022/03/09 06:35:15;;;;;;;;;;;-6.50;99.90;;;;;;5032396;28;20383;-73
2022/03/09 06:37:41;;;;;;;;;;;-6.30;99.90;;;;;;5032435;28;19913;-72
2022/03/09 06:40:07;;;;;;;;;;;-6.30;99.90;;;;;;5032559;28;19920;-73
2022/03/09 06:42:33;;;;;;;;;;;-6.30;99.90;;;;;;5032080;28;20385;-73
2022/03/09 06:44:59;;;;;;;;;;;-6.40;99.90;;;;;;5032214;28;19963;-73
2022/03/09 06:47:25;;;;;;;;;;;-6.30;99.90;;;;;;5039115;28;19909;-73
2022/03/09 06:49:50;;;;;;;;;;;-6.30;99.90;;;;;;5032993;28;20003;-73
2022/03/09 06:52:16;;;;;;;;;;;-6.20;99.90;;;;;;5035318;28;19910;-73
2022/03/09 06:54:41;;;;;;;;;;;-6.10;99.90;;;;;;5032078;28;20000;-73
2022/03/09 06:57:07;;;;;;;;;;;-5.90;99.90;;;;;;5032359;28;19909;-73
2022/03/09 06:59:33;;;;;;;;;;;-5.80;99.90;;;;;;5032154;28;19941;-73
2022/03/09 07:01:59;;;;;;;;;;;-5.70;99.90;;;;;;5032090;28;19915;-73
2022/03/09 07:04:24;;;;;;;;;;;-5.50;99.90;;;;;;5031965;28;19909;-73
2022/03/09 07:06:50;;;;;;;;;;;-5.30;99.90;;;;;;5030832;28;19916;-72
2022/03/09 07:09:15;;;;;;;;;;;-5.30;99.90;;;;;;5030784;28;19913;-73
2022/03/09 07:11:41;;;;;;;;;;;-5.20;99.90;;;;;;5032088;28;19967;-73
2022/03/09 07:14:07;;;;;;;;;;;-5.00;99.90;;;;;;5031835;28;19952;-73
2022/03/09 07:16:32;;;;;;;;;;;-4.80;99.90;;;;;;5032010;28;19917;-73
2022/03/09 07:18:58;;;;;;;;;;;-4.70;99.90;;;;;;5041275;28;19916;-73
2022/03/09 07:21:23;;;;;;;;;;;-4.60;99.90;;;;;;5034831;28;19917;-73
2022/03/09 07:23:49;;;;;;;;;;;-4.30;99.90;;;;;;5031854;28;20547;-74
2022/03/09 07:26:15;;;;;;;;;;;-4.30;99.90;;;;;;5035240;28;19909;-74
2022/03/09 07:28:41;;;;;;;;;;;-4.30;99.90;;;;;;5034089;28;19909;-74
2022/03/09 07:31:06;;;;;;;;;;;-4.20;99.90;;;;;;5037161;28;19955;-74
2022/03/09 07:33:32;;;;;;;;;;;-4.10;99.90;;;;;;5044755;28;20266;-74
2022/03/09 07:36:00;;;;;;;;;;;-3.90;99.90;;;;;;5045979;28;19917;-73
2022/03/09 07:38:26;;;;;;;;;;;-3.80;99.90;;;;;;5035911;28;20371;-73
2022/03/09 07:40:51;;;;;;;;;;;-3.60;99.90;;;;;;5043380;28;19917;-73
2022/03/09 07:43:17;;;;;;;;;;;-3.30;99.90;;;;;;5029255;28;20054;-73
2022/03/09 07:45:42;;;;;;;;;;;-3.00;99.00;;;;;;5030896;28;19909;-73
2022/03/09 07:48:08;;;;;;;;;;;-2.70;98.30;;;;;;5031564;28;20011;-73
2022/03/09 07:50:33;;;;;;;;;;;-2.60;97.50;;;;;;5041182;28;19915;-73
2022/03/09 07:52:59;;;;;;;;;;;-2.50;97.00;;;;;;5030612;28;19909;-73
2022/03/09 07:55:24;;;;;;;;;;;-2.40;96.70;;;;;;5034171;28;20035;-73
2022/03/09 07:57:50;;;;;;;;;;;-2.30;96.10;;;;;;5044989;28;19912;-73
2022/03/09 08:00:16;;;;;;;;;;;-1.90;95.30;;;;;;5040841;28;19909;-73
2022/03/09 08:02:41;;;;;;;;;;;-1.80;94.70;;;;;;5034325;28;19923;-73
2022/03/09 08:05:07;;;;;;;;;;;-1.60;94.50;;;;;;5034169;28;19909;-73
2022/03/09 08:07:33;;;;;;;;;;;-1.30;93.90;;;;;;5034309;28;20039;-73
2022/03/09 08:09:58;;;;;;;;;;;-1.30;93.40;;;;;;5034494;28;19955;-73
2022/03/09 08:12:24;;;;;;;;;;;-1.10;93.60;;;;;;5034244;28;20381;-73
2022/03/09 08:14:49;;;;;;;;;;;-0.70;93.70;;;;;;5034397;28;20369;-73
2022/03/09 08:17:15;;;;;;;;;;;1.00;92.80;;;;;;5038850;28;20004;-74
2022/03/09 08:19:40;;;;;;;;;;;3.80;86.30;;;;;;5046771;28;19920;-73
2022/03/09 08:22:06;;;;;;;;;;;5.50;75.20;;;;;;5040049;28;19960;-73
2022/03/09 08:24:35;;;;;;;;;;;6.50;70.60;;;;;;5034331;28;19909;-74
2022/03/09 08:27:00;;;;;;;;;;;7.20;67.20;;;;;;5033305;28;19910;-73
2022/03/09 08:29:26;;;;;;;;;;;7.90;63.60;;;;;;5051589;28;19931;-73
2022/03/09 08:31:51;;;;;;;;;;;8.40;61.40;;;;;;5038338;28;20413;-73
2022/03/09 08:34:17;;;;;;;;;;;8.80;59.90;;;;;;5033812;28;19924;-71
2022/03/09 08:36:42;;;;;;;;;;;9.50;57.00;;;;;;5034988;28;19913;-72
2022/03/09 08:39:08;;;;;;;;;;;9.60;56.20;;;;;;5033887;28;19909;-72
2022/03/09 08:41:36;;;;;;;;;;;10.10;54.60;;;;;;5044282;28;20354;-72
2022/03/09 08:44:02;;;;;;;;;;;11.10;51.80;;;;;;5052737;28;19913;-72
2022/03/09 08:46:27;;;;;;;;;;;11.50;49.10;;;;;;5048361;28;19917;-72
2022/03/09 08:48:53;;;;;;;;;;;11.80;49.10;;;;;;5045918;28;19909;-72
2022/03/09 08:51:20;;;;;;;;;;;11.90;48.70;;;;;;5036962;28;19920;-72
2022/03/09 08:53:46;;;;;;;;;;;12.50;47.60;;;;;;5033578;28;20382;-73
2022/03/09 08:56:11;;;;;;;;;;;12.30;46.30;;;;;;5040407;28;20179;-72
2022/03/09 08:58:37;;;;;;;;;;;12.80;47.80;;;;;;5041671;28;19963;-72
2022/03/09 09:01:03;;;;;;;;;;;13.20;47.60;;;;;;5039131;28;19913;-72
2022/03/09 09:03:29;;;;;;;;;;;13.00;45.70;;;;;;5043495;28;20442;-72
2022/03/09 09:05:54;;;;;;;;;;;13.30;44.60;;;;;;5033249;28;19913;-72
2022/03/09 09:08:20;;;;;;;;;;;12.30;45.90;;;;;;5033154;28;19913;-73
2022/03/09 09:10:46;;;;;;;;;;;12.90;45.50;;;;;;5033367;28;19967;-73
2022/03/09 09:13:11;;;;;;;;;;;14.20;42.10;;;;;;5032879;28;19913;-73
2022/03/09 09:15:37;;;;;;;;;;;14.30;41.70;;;;;;5033148;28;19928;-73
2022/03/09 09:18:04;;;;;;;;;;;14.00;42.70;;;;;;5033889;28;19913;-73
2022/03/09 09:20:29;;;;;;;;;;;13.50;41.90;;;;;;5049647;28;19919;-73
2022/03/09 09:22:56;;;;;;;;;;;14.20;41.20;;;;;;5033308;28;20282;-72
2022/03/09 09:25:23;;;;;;;;;;;14.00;41.90;;;;;;5032826;28;19914;-73
2022/03/09 09:27:49;;;;;;;;;;;14.50;42.80;;;;;;5041013;28;20358;-73
2022/03/09 09:30:15;;;;;;;;;;;15.40;39.40;;;;;;5046077;28;19909;-73
2022/03/09 09:32:41;;;;;;;;;;;14.80;38.00;;;;;;5032442;28;20044;-73
2022/03/09 09:35:06;;;;;;;;;;;14.40;40.90;;;;;;5032670;28;19990;-73
2022/03/09 09:37:32;;;;;;;;;;;15.90;39.40;;;;;;5032695;28;20296;-73
2022/03/09 09:39:57;;;;;;;;;;;15.20;40.40;;;;;;5039132;28;19924;-73
2022/03/09 09:42:31;;;;;;;;;;;16.80;37.30;;;;;;5051722;28;19919;-74
2022/03/09 09:44:58;;;;;;;;;;;16.60;39.20;;;;;;5051640;28;20278;-73
2022/03/09 09:47:24;;;;;;;;;;;17.70;37.50;;;;;;5048731;28;20276;-73
2022/03/09 09:49:52;;;;;;;;;;;18.30;36.50;;;;;;5038509;28;19909;-74
2022/03/09 09:52:18;;;;;;;;;;;17.10;36.80;;;;;;5037268;28;19948;-74
2022/03/09 09:54:44;;;;;;;;;;;16.50;37.00;;;;;;5032316;28;19909;-74
2022/03/09 09:57:12;;;;;;;;;;;16.90;35.60;;;;;;5034696;28;19917;-74
2022/03/09 09:59:37;;;;;;;;;;;18.40;35.40;;;;;;5038615;28;19956;-74
2022/03/09 10:02:05;;;;;;;;;;;18.60;33.50;;;;;;5031935;28;19957;-73
2022/03/09 10:04:31;;;;;;;;;;;18.30;33.40;;;;;;5044861;28;19916;-74
2022/03/09 10:06:56;;;;;;;;;;;17.60;36.00;;;;;;5051445;28;19909;-74
2022/03/09 10:09:22;;;;;;;;;;;18.80;33.40;;;;;;5051229;28;19915;-74
2022/03/09 10:11:52;;;;;;;;;;;18.60;33.00;;;;;;5051130;28;19916;-74
2022/03/09 10:14:18;;;;;;;;;;;19.00;33.10;;;;;;5037783;28;19909;-73
2022/03/09 10:17:03;;;;;;;;;;;17.70;31.80;;;;;;5031322;28;19940;-74
2022/03/09 10:19:36;;;;;;;;;;;19.10;32.10;;;;;;5037597;28;19909;-74
2022/03/09 10:22:23;;;;;;;;;;;19.40;31.60;;;;;;5031837;28;20329;-74
2022/03/09 10:24:49;;;;;;;;;;;19.70;30.90;;;;;;5031422;28;19909;-74
2022/03/09 10:27:35;;;;;;;;;;;19.20;32.10;;;;;;5036796;28;19909;-74
2022/03/09 10:30:02;;;;;;;;;;;19.30;31.30;;;;;;5034152;28;19944;-74
2022/03/09 10:32:43;;;;;;;;;;;19.90;31.10;;;;;;5032058;28;20247;-74
2022/03/09 10:35:09;;;;;;;;;;;20.80;30.10;;;;;;5030182;28;20374;-74
2022/03/09 10:37:37;;;;;;;;;;;21.40;29.30;;;;;;5031398;28;19919;-74
2022/03/09 10:40:10;;;;;;;;;;;21.40;28.40;;;;;;5032170;28;19923;-74
2022/03/09 10:42:38;;;;;;;;;;;19.30;31.00;;;;;;5036949;28;19924;-74
2022/03/09 10:45:07;;;;;;;;;;;20.50;30.30;;;;;;5031310;28;19909;-74
2022/03/09 10:47:34;;;;;;;;;;;21.10;29.80;;;;;;5032328;28;19909;-74
2022/03/09 10:50:20;;;;;;;;;;;22.40;28.00;;;;;;5041381;28;19928;-74
2022/03/09 10:52:53;;;;;;;;;;;21.80;28.60;;;;;;5050448;28;20385;-74
2022/03/09 10:55:22;;;;;;;;;;;20.20;28.70;;;;;;5049293;28;20445;-74
2022/03/09 10:57:48;;;;;;;;;;;20.90;29.30;;;;;;5037933;28;20007;-74
2022/03/09 11:00:14;;;;;;;;;;;21.30;29.40;;;;;;5034839;28;19920;-74
2022/03/09 11:02:50;;;;;;;;;;;22.30;29.10;;;;;;5041179;28;19912;-74
2022/03/09 11:05:17;;;;;;;;;;;21.60;28.60;;;;;;5038165;28;19909;-74
2022/03/09 11:07:43;;;;;;;;;;;22.00;28.00;;;;;;5033282;28;19970;-75
2022/03/09 11:10:09;;;;;;;;;;;21.50;26.80;;;;;;5050568;28;19909;-74
2022/03/09 11:12:36;;;;;;;;;;;23.10;27.30;;;;;;5050050;28;19916;-74
2022/03/09 11:15:01;;;;;;;;;;;23.10;25.90;;;;;;5050146;28;19962;-75
2022/03/09 11:17:27;;;;;;;;;;;22.90;26.00;;;;;;5047091;28;19917;-75
2022/03/09 11:19:53;;;;;;;;;;;22.20;24.80;;;;;;5046781;28;19909;-74
2022/03/09 11:22:18;;;;;;;;;;;22.00;27.10;;;;;;5036063;28;19913;-74
2022/03/09 11:24:44;;;;;;;;;;;21.60;26.80;;;;;;5030841;28;20393;-75
2022/03/09 11:27:10;;;;;;;;;;;20.90;25.70;;;;;;5031097;28;19913;-75
2022/03/09 11:29:37;;;;;;;;;;;21.50;25.80;;;;;;5050936;28;19955;-74
2022/03/09 11:32:04;;;;;;;;;;;22.60;26.20;;;;;;5040077;28;19987;-74
2022/03/09 11:34:39;;;;;;;;;;;23.50;26.00;;;;;;5040862;28;20373;-75
2022/03/09 11:37:05;;;;;;;;;;;22.60;26.90;;;;;;5048491;28;19936;-72
2022/03/09 11:39:30;;;;;;;;;;;23.20;26.00;;;;;;5054102;28;19951;-72
2022/03/09 11:42:14;;;;;;;;;;;22.60;25.60;;;;;;5053660;28;19952;-72
2022/03/09 11:44:40;;;;;;;;;;;22.00;24.90;;;;;;5053663;28;20459;-73
2022/03/09 11:47:07;;;;;;;;;;;22.80;25.90;;;;;;5051023;28;19909;-72
2022/03/09 11:49:36;;;;;;;;;;;23.10;24.20;;;;;;5042461;28;19915;-73
2022/03/09 11:52:28;;;;;;;;;;;22.20;24.20;;;;;;5034747;28;19913;-73
2022/03/09 11:54:55;;;;;;;;;;;21.80;24.20;;;;;;5035492;28;20001;-73
2022/03/09 11:57:44;;;;;;;;;;;20.30;26.50;;;;;;5046557;28;19917;-73
2022/03/09 12:00:13;;;;;;;;;;;18.60;25.60;;;;;;5034948;28;19909;-73
2022/03/09 12:02:40;;;;;;;;;;;13.30;30.00;;;;;;5034191;28;20354;-74
2022/03/09 12:05:07;;;;;;;;;;;11.60;32.30;;;;;;5034299;28;19913;-73
2022/03/09 12:07:34;;;;;;;;;;;11.30;33.60;;;;;;5036144;28;20375;-73
2022/03/09 12:09:59;;;;;;;;;;;11.10;34.50;;;;;;5038471;28;19916;-73
2022/03/09 12:12:29;;;;;;;;;;;11.20;35.00;;;;;;5034312;28;20005;-74
2022/03/09 12:15:02;;;;;;;;;;;11.20;35.00;;;;;;5034626;28;19960;-74
2022/03/09 12:17:28;;;;;;;;;;;11.00;34.80;;;;;;5035377;28;19921;-73
2022/03/09 12:20:12;;;;;;;;;;;11.00;38.70;;;;;;5044994;28;19924;-73
2022/03/09 12:22:59;;;;;;;;;;;10.90;39.40;;;;;;5051532;28;19913;-73
2022/03/09 12:25:39;;;;;;;;;;;10.70;40.80;;;;;;5053836;28;19909;-73
2022/03/09 12:28:23;;;;;;;;;;;10.60;41.90;;;;;;5049405;28;19919;-73
2022/03/09 12:31:08;;;;;;;;;;;10.40;43.30;;;;;;5038449;28;19909;-73
2022/03/09 12:33:38;;;;;;;;;;;10.50;42.90;;;;;;5050043;28;19909;-72
2022/03/09 12:36:05;;;;;;;;;;;9.80;44.50;;;;;;5053599;28;20333;-74
2022/03/09 12:38:37;;;;;;;;;;;9.80;44.10;;;;;;5052794;28;19913;-73
2022/03/09 12:41:03;;;;;;;;;;;10.10;42.70;;;;;;5052344;28;19913;-74
2022/03/09 12:43:47;;;;;;;;;;;10.10;41.20;;;;;;5052834;28;19996;-73
2022/03/09 12:46:12;;;;;;;;;;;10.00;42.20;;;;;;5053527;28;19917;-73
2022/03/09 12:48:39;;;;;;;;;;;10.00;41.50;;;;;;5041122;28;19915;-73
2022/03/09 12:51:04;;;;;;;;;;;10.10;41.70;;;;;;5039799;28;20009;-72
2022/03/09 12:53:30;;;;;;;;;;;9.90;41.90;;;;;;5034107;28;19948;-73
2022/03/09 12:55:56;;;;;;;;;;;10.00;42.50;;;;;;5042517;28;19909;-73
2022/03/09 12:58:22;;;;;;;;;;;9.70;41.70;;;;;;5038796;28;19990;-73
2022/03/09 13:00:59;;;;;;;;;;;9.70;42.50;;;;;;5032318;28;19909;-73
2022/03/09 13:03:26;;;;;;;;;;;9.60;43.60;;;;;;5042968;28;19908;-73
2022/03/09 13:05:51;;;;;;;;;;;9.70;43.30;;;;;;5038461;28;19913;-73
2022/03/09 13:08:17;;;;;;;;;;;10.00;42.20;;;;;;5033367;28;19909;-72
2022/03/09 13:10:45;;;;;;;;;;;10.00;42.00;;;;;;5033544;28;19999;-73
2022/03/09 13:13:11;;;;;;;;;;;10.00;42.50;;;;;;5032897;28;19909;-73
2022/03/09 13:15:51;;;;;;;;;;;10.00;42.60;;;;;;5031825;28;19916;-73
2022/03/09 13:18:27;;;;;;;;;;;10.00;42.10;;;;;;5041351;28;20008;-73
2022/03/09 13:20:52;;;;;;;;;;;9.80;43.30;;;;;;5035548;28;19910;-73
2022/03/09 13:23:33;;;;;;;;;;;9.80;43.30;;;;;;5032878;28;19909;-72
2022/03/09 13:26:18;;;;;;;;;;;9.80;42.90;;;;;;5046565;28;19909;-73
2022/03/09 13:28:47;;;;;;;;;;;9.60;41.30;;;;;;5043527;28;19909;-72
2022/03/09 13:31:13;;;;;;;;;;;9.40;43.50;;;;;;5033889;28;19909;-73
2022/03/09 13:33:38;;;;;;;;;;;9.60;41.00;;;;;;5032909;28;19931;-73
2022/03/09 13:36:04;;;;;;;;;;;9.60;43.90;;;;;;5033494;28;19909;-73
2022/03/09 13:38:29;;;;;;;;;;;9.80;42.90;;;;;;5032654;28;19998;-73
2022/03/09 13:41:06;;;;;;;;;;;9.70;41.60;;;;;;5032778;28;20481;-73
2022/03/09 13:43:38;;;;;;;;;;;9.60;42.80;;;;;;5032788;28;19956;-73
2022/03/09 13:46:17;;;;;;;;;;;9.60;41.20;;;;;;5032696;28;20416;-73
2022/03/09 13:48:43;;;;;;;;;;;9.60;42.70;;;;;;5039621;28;19909;-74
2022/03/09 13:51:08;;;;;;;;;;;9.80;42.50;;;;;;5043380;28;19916;-73
2022/03/09 13:53:38;;;;;;;;;;;9.80;41.90;;;;;;5032206;28;19910;-73
2022/03/09 13:56:15;;;;;;;;;;;9.80;41.00;;;;;;5032115;28;19908;-73
2022/03/09 13:58:41;;;;;;;;;;;9.90;40.70;;;;;;5044741;28;19995;-73
2022/03/09 14:01:07;;;;;;;;;;;10.10;40.60;;;;;;5032746;28;19913;-74
2022/03/09 14:03:40;;;;;;;;;;;9.90;40.50;;;;;;5031902;28;20282;-73
2022/03/09 14:06:16;;;;;;;;;;;9.70;40.40;;;;;;5032303;28;19909;-73
2022/03/09 14:08:41;;;;;;;;;;;9.60;39.80;;;;;;5032025;28;19972;-74
2022/03/09 14:11:08;;;;;;;;;;;9.80;41.20;;;;;;5033581;28;20404;-73
2022/03/09 14:13:55;;;;;;;;;;;9.80;41.00;;;;;;5049657;28;20182;-73
2022/03/09 14:16:20;;;;;;;;;;;10.00;39.90;;;;;;5051237;28;20021;-73
2022/03/09 14:18:46;;;;;;;;;;;10.00;39.70;;;;;;5044128;28;19988;-74
2022/03/09 14:21:11;;;;;;;;;;;9.70;41.40;;;;;;5044544;28;20362;-73